createdAt,value
2019-05-03T00:00:42.905Z,1.70
2019-05-03T00:01:42.895Z,1.70
2019-05-03T00:02:42.883Z,1.50
2019-05-03T00:03:42.871Z,1.50
2019-05-03T00:04:42.864Z,1.60
2019-05-03T00:05:42.851Z,1.50
2019-05-03T00:06:42.842Z,1.60
2019-05-03T00:07:42.831Z,1.40
2019-05-03T00:08:42.820Z,1.40
2019-05-03T00:09:42.808Z,1.70
2019-05-03T00:10:42.798Z,1.50
2019-05-03T00:11:42.786Z,1.70
2019-05-03T00:12:42.776Z,1.70
2019-05-03T00:13:42.765Z,1.90
2019-05-03T00:14:42.757Z,1.80
2019-05-03T00:15:42.927Z,1.60
2019-05-03T00:16:42.738Z,1.70
2019-05-03T00:17:42.723Z,1.80
2019-05-03T00:18:42.711Z,1.50
2019-05-03T00:19:42.703Z,1.80
2019-05-03T00:20:42.689Z,1.90
2019-05-03T00:21:42.681Z,1.60
2019-05-03T00:22:42.668Z,1.80
2019-05-03T00:23:42.661Z,1.80
2019-05-03T00:24:42.813Z,1.60
2019-05-03T00:25:42.637Z,1.60
2019-05-03T00:26:42.625Z,1.90
2019-05-03T00:27:42.856Z,1.80
2019-05-03T00:28:42.779Z,1.80
2019-05-03T00:29:42.595Z,1.80
2019-05-03T00:30:42.586Z,1.60
2019-05-03T00:31:42.572Z,1.60
2019-05-03T00:32:42.828Z,1.50
2019-05-03T00:33:42.551Z,1.70
2019-05-03T00:34:42.539Z,1.60
2019-05-03T00:35:42.528Z,1.70
2019-05-03T00:36:42.520Z,1.60
2019-05-03T00:37:42.507Z,1.70
2019-05-03T00:38:42.498Z,1.90
2019-05-03T00:39:42.485Z,1.50
2019-05-03T00:40:42.474Z,1.60
2019-05-03T00:41:42.643Z,1.60
2019-05-03T00:42:42.463Z,1.80
2019-05-03T00:43:42.479Z,1.80
2019-05-03T00:44:42.432Z,1.70
2019-05-03T00:45:42.424Z,1.70
2019-05-03T00:46:42.409Z,1.80
2019-05-03T00:47:42.399Z,1.70
2019-05-03T00:48:43.062Z,1.70
2019-05-03T00:49:42.660Z,2.00
2019-05-03T00:50:42.606Z,1.60
2019-05-03T00:51:42.476Z,1.80
2019-05-03T00:52:42.428Z,1.90
2019-05-03T00:53:42.527Z,1.90
2019-05-03T00:54:42.438Z,1.80
2019-05-03T00:55:42.325Z,2.20
2019-05-03T00:56:44.397Z,1.90
2019-05-03T00:57:42.292Z,1.90
2019-05-03T00:58:42.283Z,2.30
2019-05-03T00:59:42.272Z,1.70
2019-05-03T01:00:42.259Z,2.00
2019-05-03T01:01:42.566Z,2.00
2019-05-03T01:02:42.442Z,1.60
2019-05-03T01:03:42.230Z,2.00
2019-05-03T01:04:42.675Z,2.00
2019-05-03T01:05:42.384Z,1.80
2019-05-03T01:06:42.372Z,2.30
2019-05-03T01:07:42.317Z,1.90
2019-05-03T01:08:42.174Z,1.80
2019-05-03T01:09:42.470Z,1.70
2019-05-03T01:10:42.232Z,1.60
2019-05-03T01:11:42.142Z,1.80
2019-05-03T01:12:42.131Z,1.60
2019-05-03T01:13:42.369Z,1.80
2019-05-03T01:14:42.227Z,1.80
2019-05-03T01:15:42.445Z,1.90
2019-05-03T01:16:42.774Z,1.80
2019-05-03T01:17:42.078Z,1.80
2019-05-03T01:18:42.067Z,1.90
2019-05-03T01:19:42.625Z,1.40
2019-05-03T01:20:42.656Z,1.50
2019-05-03T01:21:42.294Z,1.60
2019-05-03T01:22:42.544Z,1.50
2019-05-03T01:23:42.094Z,1.70
2019-05-03T01:24:42.806Z,1.60
2019-05-03T01:25:42.897Z,1.70
2019-05-03T01:26:42.121Z,1.40
2019-05-03T01:27:42.738Z,1.30
2019-05-03T01:28:42.625Z,1.40
2019-05-03T01:29:42.527Z,1.50
2019-05-03T01:30:42.498Z,1.50
2019-05-03T01:31:42.216Z,1.70
2019-05-03T01:32:41.918Z,1.50
2019-05-03T01:33:42.629Z,1.20
2019-05-03T01:34:41.895Z,1.30
2019-05-03T01:35:42.815Z,1.50
2019-05-03T01:36:42.701Z,1.20
2019-05-03T01:37:42.476Z,1.70
2019-05-03T01:38:42.372Z,1.30
2019-05-03T01:39:42.102Z,1.40
2019-05-03T01:40:42.015Z,1.30
2019-05-03T01:41:41.825Z,1.40
2019-05-03T01:42:42.594Z,1.40
2019-05-03T01:43:41.972Z,1.30
2019-05-03T01:44:42.723Z,1.40
2019-05-03T01:45:42.506Z,1.10
2019-05-03T01:46:42.204Z,1.30
2019-05-03T01:47:41.998Z,1.40
2019-05-03T01:48:41.745Z,1.20
2019-05-03T01:49:42.642Z,1.50
2019-05-03T01:50:42.539Z,1.30
2019-05-03T01:51:42.062Z,1.20
2019-05-03T01:52:42.042Z,1.40
2019-05-03T01:53:41.772Z,1.30
2019-05-03T01:54:42.706Z,1.50
2019-05-03T01:55:44.519Z,1.40
2019-05-03T01:56:50.001Z,1.30
2019-05-03T01:57:42.648Z,1.30
2019-05-03T01:58:41.795Z,1.40
2019-05-03T01:59:42.610Z,1.00
2019-05-03T02:00:42.312Z,1.40
2019-05-03T02:01:42.177Z,1.30
2019-05-03T02:02:41.982Z,1.10
2019-05-03T02:03:41.895Z,1.40
2019-05-03T02:04:41.798Z,1.30
2019-05-03T02:05:42.939Z,1.30
2019-05-03T02:06:42.457Z,1.10
2019-05-03T02:07:42.276Z,1.30
2019-05-03T02:08:41.866Z,0.90
2019-05-03T02:09:41.756Z,1.50
2019-05-03T02:10:43.476Z,0.80
2019-05-03T02:11:42.147Z,1.20
2019-05-03T02:12:41.800Z,1.30
2019-05-03T02:13:42.774Z,1.10
2019-05-03T02:14:42.221Z,1.10
2019-05-03T02:15:42.188Z,1.00
2019-05-03T02:16:42.005Z,1.00
2019-05-03T02:17:42.636Z,0.90
2019-05-03T02:18:42.390Z,1.00
2019-05-03T02:19:42.195Z,1.10
2019-05-03T02:20:41.862Z,1.20
2019-05-03T02:21:41.755Z,0.90
2019-05-03T02:22:42.761Z,1.10
2019-05-03T02:23:42.606Z,1.10
2019-05-03T02:24:42.250Z,0.70
2019-05-03T02:25:41.936Z,1.20
2019-05-03T02:26:42.488Z,0.90
2019-05-03T02:27:42.223Z,1.00
2019-05-03T02:28:42.145Z,1.00
2019-05-03T02:29:41.826Z,1.10
2019-05-03T02:30:44.192Z,1.30
2019-05-03T02:31:43.685Z,1.10
2019-05-03T02:32:44.000Z,1.10
2019-05-03T02:33:43.488Z,1.20
2019-05-03T02:34:44.086Z,1.10
2019-05-03T02:35:43.003Z,1.50
2019-05-03T02:36:42.727Z,0.90
2019-05-03T02:37:43.875Z,1.00
2019-05-03T02:38:43.002Z,0.80
2019-05-03T02:39:42.725Z,1.00
2019-05-03T02:40:42.986Z,1.30
2019-05-03T02:41:41.180Z,1.10
2019-05-03T02:42:41.167Z,0.80
2019-05-03T02:43:41.159Z,1.00
2019-05-03T02:44:41.156Z,0.80
2019-05-03T02:45:41.136Z,1.00
2019-05-03T02:46:41.129Z,1.20
2019-05-03T02:47:41.114Z,1.10
2019-05-03T02:48:41.104Z,1.10
2019-05-03T02:49:41.092Z,1.30
2019-05-03T02:50:41.084Z,1.00
2019-05-03T02:51:41.072Z,0.90
2019-05-03T02:52:41.068Z,1.10
2019-05-03T02:53:41.049Z,1.40
2019-05-03T02:54:41.041Z,1.30
2019-05-03T02:55:41.030Z,1.10
2019-05-03T02:56:41.038Z,1.20
2019-05-03T02:57:41.006Z,0.80
2019-05-03T02:58:40.997Z,1.00
2019-05-03T02:59:40.991Z,1.20
2019-05-03T03:00:40.976Z,1.20
2019-05-03T03:01:40.965Z,1.10
2019-05-03T03:02:40.953Z,1.10
2019-05-03T03:03:40.943Z,1.20
2019-05-03T03:04:40.932Z,1.10
2019-05-03T03:05:40.920Z,1.20
2019-05-03T03:06:40.911Z,0.80
2019-05-03T03:07:40.899Z,1.40
2019-05-03T03:08:40.890Z,0.90
2019-05-03T03:09:40.878Z,1.20
2019-05-03T03:10:40.869Z,1.00
2019-05-03T03:11:40.857Z,1.10
2019-05-03T03:12:40.845Z,1.20
2019-05-03T03:13:40.836Z,1.10
2019-05-03T03:14:40.829Z,1.30
2019-05-03T03:15:40.814Z,1.20
2019-05-03T03:16:40.807Z,0.90
2019-05-03T03:17:40.794Z,1.10
2019-05-03T03:18:40.790Z,1.10
2019-05-03T03:19:40.781Z,0.90
2019-05-03T03:20:40.774Z,1.60
2019-05-03T03:21:40.760Z,1.20
2019-05-03T03:22:40.741Z,1.30
2019-05-03T03:23:40.728Z,1.40
2019-05-03T03:24:40.720Z,1.10
2019-05-03T03:25:40.706Z,1.40
2019-05-03T03:26:43.188Z,1.30
2019-05-03T03:27:41.685Z,1.10
2019-05-03T03:28:40.676Z,1.40
2019-05-03T03:29:40.663Z,1.20
2019-05-03T03:30:40.654Z,1.30
2019-05-03T03:31:40.644Z,1.40
2019-05-03T03:32:40.635Z,1.20
2019-05-03T03:33:40.801Z,1.20
2019-05-03T03:34:47.573Z,1.20
2019-05-03T03:35:41.603Z,1.20
2019-05-03T03:36:58.016Z,1.30
2019-05-03T03:37:41.576Z,1.30
2019-05-03T03:38:40.566Z,1.40
2019-05-03T03:39:40.558Z,1.10
2019-05-03T03:40:40.575Z,1.20
2019-05-03T03:41:40.536Z,1.00
2019-05-03T03:42:40.525Z,1.50
2019-05-03T03:43:40.517Z,1.40
2019-05-03T03:44:40.515Z,1.30
2019-05-03T03:45:40.492Z,1.00
2019-05-03T03:46:40.483Z,1.30
2019-05-03T03:47:40.484Z,1.20
2019-05-03T03:48:40.462Z,1.10
2019-05-03T03:49:40.450Z,1.00
2019-05-03T03:50:40.440Z,0.90
2019-05-03T03:51:40.429Z,1.00
2019-05-03T03:52:40.427Z,1.20
2019-05-03T03:53:40.409Z,0.80
2019-05-03T03:54:40.400Z,1.10
2019-05-03T03:55:40.390Z,1.20
2019-05-03T03:56:54.485Z,1.00
2019-05-03T03:57:41.363Z,1.10
2019-05-03T03:58:40.354Z,1.40
2019-05-03T03:59:40.354Z,1.10
2019-05-03T04:00:40.333Z,1.20
2019-05-03T04:01:40.321Z,1.30
2019-05-03T04:02:40.331Z,1.10
2019-05-03T04:03:40.301Z,1.40
2019-05-03T04:04:40.291Z,1.40
2019-05-03T04:05:40.279Z,1.10
2019-05-03T04:06:40.283Z,0.90
2019-05-03T04:07:40.259Z,1.40
2019-05-03T04:08:40.251Z,1.00
2019-05-03T04:09:40.242Z,1.20
2019-05-03T04:10:40.227Z,1.30
2019-05-03T04:11:40.213Z,1.40
2019-05-03T04:12:40.207Z,1.00
2019-05-03T04:13:40.205Z,1.00
2019-05-03T04:14:40.183Z,1.20
2019-05-03T04:15:40.172Z,1.10
2019-05-03T04:16:40.161Z,1.60
2019-05-03T04:17:40.151Z,1.30
2019-05-03T04:18:40.141Z,1.30
2019-05-03T04:19:40.130Z,1.20
2019-05-03T04:20:40.117Z,1.30
2019-05-03T04:21:40.113Z,1.20
2019-05-03T04:22:40.096Z,1.10
2019-05-03T04:23:40.086Z,1.50
2019-05-03T04:24:40.081Z,1.20
2019-05-03T04:25:40.066Z,1.20
2019-05-03T04:26:40.055Z,1.40
2019-05-03T04:27:40.042Z,1.40
2019-05-03T04:28:40.038Z,1.20
2019-05-03T04:29:40.030Z,1.50
2019-05-03T04:30:40.036Z,1.20
2019-05-03T04:31:40.001Z,1.50
2019-05-03T04:32:39.990Z,1.10
2019-05-03T04:33:39.982Z,1.20
2019-05-03T04:34:39.968Z,1.10
2019-05-03T04:35:39.956Z,1.40
2019-05-03T04:36:39.960Z,1.80
2019-05-03T04:37:39.940Z,1.00
2019-05-03T04:38:39.929Z,1.50
2019-05-03T04:39:39.917Z,1.40
2019-05-03T04:40:39.902Z,1.60
2019-05-03T04:41:39.895Z,1.40
2019-05-03T04:42:39.887Z,1.80
2019-05-03T04:43:39.879Z,1.30
2019-05-03T04:44:39.865Z,1.40
2019-05-03T04:45:39.851Z,1.30
2019-05-03T04:46:39.856Z,1.20
2019-05-03T04:47:39.830Z,1.20
2019-05-03T04:48:39.824Z,1.20
2019-05-03T04:49:39.807Z,1.40
2019-05-03T04:50:39.805Z,1.60
2019-05-03T04:51:39.787Z,1.00
2019-05-03T04:52:39.775Z,1.60
2019-05-03T04:53:39.765Z,1.40
2019-05-03T04:54:39.756Z,1.30
2019-05-03T04:55:39.743Z,0.90
2019-05-03T04:56:39.741Z,1.30
2019-05-03T04:57:45.513Z,1.40
2019-05-03T04:58:40.714Z,1.50
2019-05-03T04:59:39.699Z,1.40
2019-05-03T05:00:39.694Z,1.50
2019-05-03T05:01:39.680Z,1.40
2019-05-03T05:02:39.671Z,1.10
2019-05-03T05:03:39.656Z,1.50
2019-05-03T05:04:39.656Z,2.20
2019-05-03T05:05:39.653Z,1.20
2019-05-03T05:06:39.626Z,1.40
2019-05-03T05:07:39.622Z,1.70
2019-05-03T05:08:39.608Z,1.80
2019-05-03T05:09:39.599Z,1.60
2019-05-03T05:10:39.586Z,1.40
2019-05-03T05:11:39.572Z,1.60
2019-05-03T05:12:39.561Z,1.20
2019-05-03T05:13:39.553Z,1.40
2019-05-03T05:14:39.540Z,1.30
2019-05-03T05:15:39.532Z,1.40
2019-05-03T05:16:39.907Z,1.40
2019-05-03T05:17:39.508Z,1.20
2019-05-03T05:18:39.509Z,1.90
2019-05-03T05:19:39.492Z,1.60
2019-05-03T05:20:39.475Z,1.90
2019-05-03T05:21:39.469Z,1.30
2019-05-03T05:22:39.475Z,1.70
2019-05-03T05:23:39.443Z,1.20
2019-05-03T05:24:39.436Z,3.90
2019-05-03T05:25:39.423Z,1.40
2019-05-03T05:26:39.411Z,2.90
2019-05-03T05:27:48.850Z,1.50
2019-05-03T05:28:40.388Z,2.80
2019-05-03T05:29:39.378Z,3.60
2019-05-03T05:30:39.370Z,4.40
2019-05-03T05:31:39.376Z,2.20
2019-05-03T05:32:39.348Z,1.30
2019-05-03T05:33:39.337Z,4.90
2019-05-03T05:34:39.327Z,2.90
2019-05-03T05:35:39.318Z,1.80
2019-05-03T05:36:39.314Z,2.80
2019-05-03T05:37:39.298Z,1.30
2019-05-03T05:38:39.283Z,1.30
2019-05-03T05:39:39.275Z,2.10
2019-05-03T05:40:39.262Z,1.80
2019-05-03T05:41:39.257Z,1.30
2019-05-03T05:42:39.241Z,1.40
2019-05-03T05:43:39.230Z,1.50
2019-05-03T05:44:39.219Z,1.70
2019-05-03T05:45:39.207Z,2.30
2019-05-03T05:46:39.196Z,1.50
2019-05-03T05:47:39.187Z,1.20
2019-05-03T05:48:39.178Z,1.70
2019-05-03T05:49:39.167Z,1.30
2019-05-03T05:50:39.158Z,1.20
2019-05-03T05:51:39.142Z,1.20
2019-05-03T05:52:39.132Z,1.30
2019-05-03T05:53:39.122Z,1.10
2019-05-03T05:54:39.111Z,1.50
2019-05-03T05:55:39.100Z,1.30
2019-05-03T05:56:39.089Z,1.00
2019-05-03T05:57:39.078Z,1.30
2019-05-03T05:58:39.068Z,1.40
2019-05-03T05:59:39.057Z,1.50
2019-05-03T06:00:39.050Z,1.10
2019-05-03T06:01:39.036Z,1.40
2019-05-03T06:02:39.024Z,1.80
2019-05-03T06:03:39.015Z,1.10
2019-05-03T06:04:39.004Z,1.30
2019-05-03T06:05:38.992Z,1.40
2019-05-03T06:06:38.982Z,1.10
2019-05-03T06:07:38.975Z,1.10
2019-05-03T06:08:38.960Z,1.30
2019-05-03T06:09:38.950Z,1.10
2019-05-03T06:10:38.939Z,1.50
2019-05-03T06:11:38.931Z,1.20
2019-05-03T06:12:38.923Z,1.10
2019-05-03T06:13:38.909Z,1.20
2019-05-03T06:14:38.895Z,1.30
2019-05-03T06:15:38.885Z,1.20
2019-05-03T06:16:38.876Z,1.20
2019-05-03T06:17:38.866Z,1.00
2019-05-03T06:18:38.860Z,1.20
2019-05-03T06:19:38.842Z,1.20
2019-05-03T06:20:38.834Z,1.30
2019-05-03T06:21:38.821Z,1.60
2019-05-03T06:22:38.811Z,1.30
2019-05-03T06:23:38.799Z,1.20
2019-05-03T06:24:38.797Z,1.20
2019-05-03T06:25:38.781Z,1.10
2019-05-03T06:26:38.766Z,1.10
2019-05-03T06:27:38.757Z,1.20
2019-05-03T06:28:38.751Z,1.00
2019-05-03T06:29:38.735Z,1.30
2019-05-03T06:30:38.724Z,1.30
2019-05-03T06:31:38.722Z,1.20
2019-05-03T06:32:38.703Z,1.10
2019-05-03T06:33:38.695Z,1.10
2019-05-03T06:34:38.682Z,1.10
2019-05-03T06:35:38.670Z,1.30
2019-05-03T06:36:38.665Z,1.10
2019-05-03T06:37:38.649Z,1.40
2019-05-03T06:38:38.637Z,1.20
2019-05-03T06:39:38.627Z,1.00
2019-05-03T06:40:38.618Z,1.10
2019-05-03T06:41:38.605Z,1.30
2019-05-03T06:42:50.969Z,1.20
2019-05-03T06:43:44.354Z,1.20
2019-05-03T06:44:39.574Z,1.40
2019-05-03T06:45:41.094Z,1.10
2019-05-03T06:46:39.549Z,1.20
2019-05-03T06:47:40.305Z,1.20
2019-05-03T06:48:39.528Z,1.20
2019-05-03T06:49:39.371Z,1.10
2019-05-03T06:50:39.506Z,1.30
2019-05-03T06:51:39.949Z,1.40
2019-05-03T06:52:39.486Z,1.20
2019-05-03T06:53:41.835Z,1.10
2019-05-03T06:54:39.468Z,1.30
2019-05-03T06:55:40.092Z,1.50
2019-05-03T06:56:41.408Z,1.70
2019-05-03T06:57:40.123Z,1.20
2019-05-03T06:58:39.422Z,1.30
2019-05-03T06:59:38.416Z,1.10
2019-05-03T07:00:38.403Z,1.10
2019-05-03T07:01:38.393Z,1.30
2019-05-03T07:02:38.383Z,1.20
2019-05-03T07:03:38.378Z,1.50
2019-05-03T07:04:38.358Z,1.30
2019-05-03T07:05:38.346Z,0.90
2019-05-03T07:06:40.703Z,1.10
2019-05-03T07:07:38.329Z,1.10
2019-05-03T07:08:38.314Z,1.00
2019-05-03T07:09:38.304Z,1.40
2019-05-03T07:10:38.364Z,1.30
2019-05-03T07:11:38.282Z,1.20
2019-05-03T07:12:38.269Z,1.80
2019-05-03T07:13:38.262Z,0.90
2019-05-03T07:14:38.247Z,1.00
2019-05-03T07:15:38.239Z,1.40
2019-05-03T07:16:38.225Z,1.40
2019-05-03T07:17:38.216Z,1.10
2019-05-03T07:18:38.204Z,1.20
2019-05-03T07:19:38.193Z,1.10
2019-05-03T07:20:38.184Z,0.80
2019-05-03T07:21:38.174Z,1.10
2019-05-03T07:22:38.165Z,1.30
2019-05-03T07:23:38.149Z,1.00
2019-05-03T07:24:40.795Z,1.10
2019-05-03T07:25:38.133Z,1.10
2019-05-03T07:26:38.119Z,1.20
2019-05-03T07:27:38.108Z,1.20
2019-05-03T07:28:47.161Z,1.20
2019-05-03T07:29:39.088Z,1.00
2019-05-03T07:30:38.079Z,1.40
2019-05-03T07:31:38.071Z,1.20
2019-05-03T07:32:38.055Z,1.20
2019-05-03T07:33:38.047Z,1.20
2019-05-03T07:34:38.035Z,1.10
2019-05-03T07:35:38.025Z,1.10
2019-05-03T07:36:38.028Z,1.10
2019-05-03T07:37:38.004Z,1.20
2019-05-03T07:38:37.993Z,1.00
2019-05-03T07:39:37.983Z,1.10
2019-05-03T07:40:37.971Z,1.00
2019-05-03T07:41:37.960Z,1.20
2019-05-03T07:42:37.952Z,1.50
2019-05-03T07:43:37.935Z,1.10
2019-05-03T07:44:37.934Z,1.20
2019-05-03T07:45:37.920Z,1.40
2019-05-03T07:46:37.905Z,1.30
2019-05-03T07:47:37.896Z,1.10
2019-05-03T07:48:37.881Z,1.10
2019-05-03T07:49:37.878Z,1.20
2019-05-03T07:50:37.859Z,1.40
2019-05-03T07:51:37.850Z,1.00
2019-05-03T07:52:37.841Z,1.40
2019-05-03T07:53:37.827Z,1.30
2019-05-03T07:54:37.816Z,1.40
2019-05-03T07:55:37.806Z,1.00
2019-05-03T07:56:37.795Z,1.40
2019-05-03T07:57:37.783Z,1.20
2019-05-03T07:58:37.775Z,0.90
2019-05-03T07:59:37.763Z,1.30
2019-05-03T08:00:37.753Z,1.20
2019-05-03T08:01:37.741Z,1.20
2019-05-03T08:02:37.731Z,1.20
2019-05-03T08:03:37.720Z,1.00
2019-05-03T08:04:37.710Z,0.80
2019-05-03T08:05:37.701Z,0.90
2019-05-03T08:06:37.692Z,1.00
2019-05-03T08:07:37.678Z,0.80
2019-05-03T08:08:37.667Z,1.40
2019-05-03T08:09:37.660Z,1.10
2019-05-03T08:10:37.753Z,1.00
2019-05-03T08:11:37.717Z,0.90
2019-05-03T08:12:37.628Z,1.10
2019-05-03T08:13:37.615Z,1.10
2019-05-03T08:14:37.606Z,1.20
2019-05-03T08:15:37.595Z,1.20
2019-05-03T08:16:37.585Z,1.30
2019-05-03T08:17:37.573Z,0.80
2019-05-03T08:18:37.566Z,0.80
2019-05-03T08:19:37.553Z,0.90
2019-05-03T08:20:37.540Z,0.90
2019-05-03T08:21:38.869Z,0.90
2019-05-03T08:22:37.519Z,0.90
2019-05-03T08:23:37.505Z,0.90
2019-05-03T08:24:37.498Z,0.90
2019-05-03T08:25:37.486Z,0.80
2019-05-03T08:26:37.473Z,1.00
2019-05-03T08:27:37.465Z,1.30
2019-05-03T08:28:37.452Z,1.00
2019-05-03T08:29:37.442Z,1.00
2019-05-03T08:30:37.433Z,1.00
2019-05-03T08:31:37.420Z,0.90
2019-05-03T08:32:37.415Z,0.90
2019-05-03T08:33:37.403Z,1.10
2019-05-03T08:34:37.392Z,0.90
2019-05-03T08:35:37.381Z,1.20
2019-05-03T08:36:37.371Z,0.90
2019-05-03T08:37:37.357Z,1.10
2019-05-03T08:38:37.349Z,1.00
2019-05-03T08:39:37.340Z,0.90
2019-05-03T08:40:37.328Z,1.10
2019-05-03T08:41:37.320Z,1.00
2019-05-03T08:42:37.308Z,1.10
2019-05-03T08:43:37.301Z,0.90
2019-05-03T08:44:37.374Z,1.10
2019-05-03T08:45:37.278Z,1.00
2019-05-03T08:46:37.267Z,1.10
2019-05-03T08:47:37.254Z,1.00
2019-05-03T08:48:37.245Z,0.80
2019-05-03T08:49:37.235Z,1.00
2019-05-03T08:50:37.220Z,1.00
2019-05-03T08:51:37.212Z,0.90
2019-05-03T08:52:37.203Z,0.90
2019-05-03T08:53:37.189Z,1.00
2019-05-03T08:54:37.179Z,0.90
2019-05-03T08:55:37.169Z,0.80
2019-05-03T08:56:37.157Z,0.90
2019-05-03T08:57:37.148Z,0.70
2019-05-03T08:58:37.136Z,0.80
2019-05-03T08:59:37.141Z,0.90
2019-05-03T09:00:37.116Z,0.70
2019-05-03T09:01:39.390Z,1.00
2019-05-03T09:02:37.095Z,1.10
2019-05-03T09:03:38.476Z,0.80
2019-05-03T09:04:38.551Z,1.00
2019-05-03T09:05:37.065Z,0.80
2019-05-03T09:06:37.063Z,1.20
2019-05-03T09:07:37.043Z,1.10
2019-05-03T09:08:37.030Z,1.00
2019-05-03T09:09:37.022Z,1.00
2019-05-03T09:10:37.011Z,1.00
2019-05-03T09:11:37.035Z,1.00
2019-05-03T09:12:36.988Z,0.80
2019-05-03T09:13:36.979Z,1.10
2019-05-03T09:14:42.615Z,1.10
2019-05-03T09:15:37.956Z,1.10
2019-05-03T09:16:36.947Z,0.90
2019-05-03T09:17:36.935Z,0.90
2019-05-03T09:18:36.934Z,1.00
2019-05-03T09:19:36.915Z,0.70
2019-05-03T09:20:36.906Z,1.10
2019-05-03T09:21:36.891Z,0.80
2019-05-03T09:22:36.892Z,0.80
2019-05-03T09:23:36.876Z,1.10
2019-05-03T09:24:36.864Z,0.90
2019-05-03T09:25:36.856Z,0.90
2019-05-03T09:26:36.839Z,0.80
2019-05-03T09:27:36.829Z,1.00
2019-05-03T09:28:36.820Z,1.20
2019-05-03T09:29:43.160Z,0.90
2019-05-03T09:30:37.901Z,0.90
2019-05-03T09:31:36.788Z,0.80
2019-05-03T09:32:36.777Z,0.80
2019-05-03T09:33:36.765Z,1.00
2019-05-03T09:34:36.756Z,0.90
2019-05-03T09:35:36.743Z,1.00
2019-05-03T09:36:36.733Z,1.00
2019-05-03T09:37:36.722Z,0.90
2019-05-03T09:38:36.710Z,1.10
2019-05-03T09:39:36.699Z,1.00
2019-05-03T09:40:36.688Z,1.10
2019-05-03T09:41:36.677Z,1.20
2019-05-03T09:42:36.666Z,1.10
2019-05-03T09:43:36.654Z,1.00
2019-05-03T09:44:36.644Z,1.20
2019-05-03T09:45:36.633Z,1.30
2019-05-03T09:46:36.648Z,0.80
2019-05-03T09:47:36.617Z,1.00
2019-05-03T09:48:36.615Z,0.90
2019-05-03T09:49:36.595Z,1.40
2019-05-03T09:50:36.582Z,1.10
2019-05-03T09:51:36.571Z,1.10
2019-05-03T09:52:36.562Z,0.80
2019-05-03T09:53:36.553Z,1.20
2019-05-03T09:54:36.538Z,1.10
2019-05-03T09:55:36.529Z,1.20
2019-05-03T09:56:36.516Z,1.30
2019-05-03T09:57:36.507Z,0.90
2019-05-03T09:58:38.241Z,0.80
2019-05-03T09:59:36.487Z,1.00
2019-05-03T10:00:36.475Z,0.90
2019-05-03T10:01:36.464Z,0.80
2019-05-03T10:02:36.455Z,0.90
2019-05-03T10:03:36.609Z,0.60
2019-05-03T10:04:36.824Z,1.10
2019-05-03T10:05:36.424Z,0.80
2019-05-03T10:06:36.412Z,0.90
2019-05-03T10:07:36.404Z,0.90
2019-05-03T10:08:36.393Z,0.90
2019-05-03T10:09:36.384Z,0.70
2019-05-03T10:10:36.372Z,0.70
2019-05-03T10:11:36.372Z,0.70
2019-05-03T10:12:36.352Z,0.80
2019-05-03T10:13:36.342Z,0.80
2019-05-03T10:14:36.328Z,0.80
2019-05-03T10:15:36.318Z,0.80
2019-05-03T10:16:36.310Z,1.00
2019-05-03T10:17:36.300Z,0.90
2019-05-03T10:18:36.303Z,1.00
2019-05-03T10:19:40.126Z,0.80
2019-05-03T10:20:36.267Z,1.20
2019-05-03T10:21:36.257Z,0.90
2019-05-03T10:22:36.255Z,1.00
2019-05-03T10:23:36.237Z,1.10
2019-05-03T10:24:36.270Z,1.00
2019-05-03T10:25:36.257Z,1.10
2019-05-03T10:26:36.281Z,0.80
2019-05-03T10:27:36.191Z,0.80
2019-05-03T10:28:36.185Z,1.20
2019-05-03T10:29:36.173Z,0.90
2019-05-03T10:30:36.160Z,1.00
2019-05-03T10:31:36.147Z,0.90
2019-05-03T10:32:36.139Z,1.00
2019-05-03T10:33:36.127Z,0.90
2019-05-03T10:34:36.145Z,1.00
2019-05-03T10:35:36.107Z,0.90
2019-05-03T10:36:36.096Z,0.80
2019-05-03T10:37:36.087Z,1.00
2019-05-03T10:38:36.074Z,0.70
2019-05-03T10:39:36.308Z,0.90
2019-05-03T10:40:36.055Z,1.00
2019-05-03T10:41:36.050Z,0.90
2019-05-03T10:42:36.037Z,1.00
2019-05-03T10:43:36.022Z,1.00
2019-05-03T10:44:36.010Z,0.90
2019-05-03T10:45:36.002Z,1.10
2019-05-03T10:46:35.989Z,1.00
2019-05-03T10:47:35.981Z,0.80
2019-05-03T10:48:35.969Z,1.10
2019-05-03T10:49:35.960Z,1.00
2019-05-03T10:50:35.947Z,0.90
2019-05-03T10:51:36.018Z,0.90
2019-05-03T10:52:35.928Z,0.80
2019-05-03T10:53:35.917Z,2.00
2019-05-03T10:54:36.059Z,1.20
2019-05-03T10:55:35.937Z,1.10
2019-05-03T10:56:35.970Z,1.10
2019-05-03T10:57:35.874Z,0.90
2019-05-03T10:58:35.864Z,0.80
2019-05-03T10:59:35.854Z,0.80
2019-05-03T11:00:44.578Z,1.10
2019-05-03T11:01:36.829Z,1.30
2019-05-03T11:02:36.215Z,1.10
2019-05-03T11:03:35.811Z,1.10
2019-05-03T11:04:35.801Z,1.00
2019-05-03T11:05:35.786Z,0.90
2019-05-03T11:06:35.797Z,1.00
2019-05-03T11:07:35.781Z,0.80
2019-05-03T11:08:35.756Z,1.00
2019-05-03T11:09:49.830Z,1.00
2019-05-03T11:10:36.732Z,0.90
2019-05-03T11:11:35.742Z,1.00
2019-05-03T11:12:35.711Z,1.00
2019-05-03T11:13:35.709Z,1.10
2019-05-03T11:14:35.691Z,1.10
2019-05-03T11:15:35.681Z,1.10
2019-05-03T11:16:35.668Z,0.90
2019-05-03T11:17:35.664Z,0.90
2019-05-03T11:18:35.646Z,1.00
2019-05-03T11:19:35.642Z,1.10
2019-05-03T11:20:35.632Z,0.90
2019-05-03T11:21:35.615Z,1.00
2019-05-03T11:22:35.603Z,0.90
2019-05-03T11:23:35.596Z,1.00
2019-05-03T11:24:35.584Z,1.00
2019-05-03T11:25:35.572Z,1.00
2019-05-03T11:26:35.564Z,1.00
2019-05-03T11:27:35.559Z,1.00
2019-05-03T11:28:35.540Z,0.70
2019-05-03T11:29:35.707Z,1.00
2019-05-03T11:30:35.713Z,0.90
2019-05-03T11:31:35.511Z,1.10
2019-05-03T11:32:35.500Z,1.10
2019-05-03T11:33:35.493Z,0.90
2019-05-03T11:34:35.587Z,1.10
2019-05-03T11:35:35.463Z,1.00
2019-05-03T11:36:35.454Z,1.30
2019-05-03T11:37:35.444Z,1.00
2019-05-03T11:38:35.433Z,0.90
2019-05-03T11:39:35.421Z,1.10
2019-05-03T11:40:35.419Z,1.00
2019-05-03T11:41:35.830Z,1.00
2019-05-03T11:42:35.485Z,1.00
2019-05-03T11:43:35.382Z,0.80
2019-05-03T11:44:36.348Z,1.10
2019-05-03T11:45:35.555Z,1.00
2019-05-03T11:46:35.503Z,0.90
2019-05-03T11:47:35.335Z,0.80
2019-05-03T11:48:35.324Z,0.90
2019-05-03T11:49:35.315Z,0.60
2019-05-03T11:50:35.316Z,1.00
2019-05-03T11:51:35.423Z,1.10
2019-05-03T11:52:35.667Z,1.00
2019-05-03T11:53:35.652Z,0.90
2019-05-03T11:54:35.883Z,1.00
2019-05-03T11:55:35.423Z,0.90
2019-05-03T11:56:35.944Z,1.10
2019-05-03T11:57:35.738Z,1.00
2019-05-03T11:58:35.241Z,0.90
2019-05-03T11:59:35.206Z,1.00
2019-05-03T12:00:35.195Z,1.00
2019-05-03T12:01:35.798Z,0.90
2019-05-03T12:02:35.172Z,1.00
2019-05-03T12:03:35.560Z,1.00
2019-05-03T12:04:35.459Z,0.90
2019-05-03T12:05:35.143Z,0.90
2019-05-03T12:06:36.824Z,0.90
2019-05-03T12:07:39.487Z,0.90
2019-05-03T12:08:35.109Z,1.00
2019-05-03T12:09:35.098Z,0.80
2019-05-03T12:10:50.775Z,0.80
2019-05-03T12:11:36.077Z,1.20
2019-05-03T12:12:35.366Z,1.00
2019-05-03T12:13:35.055Z,1.00
2019-05-03T12:14:35.045Z,0.80
2019-05-03T12:15:35.308Z,0.70
2019-05-03T12:17:11.985Z,1.00
2019-05-03T12:17:36.350Z,0.80
2019-05-03T12:18:48.983Z,1.00
2019-05-03T12:19:37.629Z,1.10
2019-05-03T12:20:36.968Z,1.00
2019-05-03T12:21:37.607Z,0.70
2019-05-03T12:22:35.927Z,1.00
2019-05-03T12:23:36.694Z,1.20
2019-05-03T12:24:36.441Z,1.00
2019-05-03T12:25:36.145Z,1.10
2019-05-03T12:26:43.385Z,1.00
2019-05-03T12:27:35.902Z,1.20
2019-05-03T12:28:35.368Z,0.80
2019-05-03T12:29:35.307Z,0.80
2019-05-03T12:30:35.500Z,0.90
2019-05-03T12:31:40.281Z,1.00
2019-05-03T12:32:35.848Z,0.70
2019-05-03T12:33:35.485Z,0.90
2019-05-03T12:34:35.349Z,0.80
2019-05-03T12:35:35.780Z,0.70
2019-05-03T12:36:38.951Z,0.90
2019-05-03T12:37:35.382Z,0.90
2019-05-03T12:38:35.091Z,0.80
2019-05-03T12:39:35.830Z,0.80
2019-05-03T12:40:34.974Z,0.80
2019-05-03T12:41:34.753Z,0.60
2019-05-03T12:42:35.511Z,0.90
2019-05-03T12:43:34.729Z,0.90
2019-05-03T12:44:35.416Z,1.00
2019-05-03T12:45:35.440Z,0.90
2019-05-03T12:46:35.399Z,0.90
2019-05-03T12:47:34.847Z,0.80
2019-05-03T12:48:35.521Z,1.00
2019-05-03T12:49:35.827Z,1.00
2019-05-03T12:50:34.955Z,0.80
2019-05-03T12:51:34.645Z,1.10
2019-05-03T12:52:36.669Z,1.00
2019-05-03T12:53:35.621Z,0.70
2019-05-03T12:54:35.650Z,1.10
2019-05-03T12:55:35.665Z,0.90
2019-05-03T12:56:35.819Z,0.90
2019-05-03T12:57:34.617Z,0.90
2019-05-03T12:58:34.787Z,1.30
2019-05-03T12:59:35.983Z,1.10
2019-05-03T13:00:34.556Z,1.00
2019-05-03T13:01:41.754Z,0.90
2019-05-03T13:02:35.525Z,1.10
2019-05-03T13:03:34.516Z,0.90
2019-05-03T13:04:34.505Z,0.80
2019-05-03T13:05:35.625Z,1.00
2019-05-03T13:06:34.681Z,1.00
2019-05-03T13:07:34.847Z,0.90
2019-05-03T13:08:35.254Z,1.00
2019-05-03T13:09:35.743Z,1.20
2019-05-03T13:10:34.736Z,1.00
2019-05-03T13:11:36.457Z,1.30
2019-05-03T13:12:34.779Z,1.00
2019-05-03T13:13:35.918Z,0.90
2019-05-03T13:14:34.640Z,1.00
2019-05-03T13:15:35.196Z,1.00
2019-05-03T13:16:35.343Z,0.90
2019-05-03T13:17:34.372Z,0.80
2019-05-03T13:18:35.083Z,1.20